createdAt,value
2023-07-03T00:01:23.767Z,22.81
2023-07-03T00:04:12.153Z,22.81
2023-07-03T00:06:58.428Z,22.77
2023-07-03T00:09:44.797Z,22.75
2023-07-03T00:12:31.549Z,22.75
2023-07-03T00:15:17.816Z,22.73
2023-07-03T00:18:04.101Z,22.72
2023-07-03T00:20:55.864Z,22.69
2023-07-03T00:23:42.034Z,22.66
2023-07-03T00:26:27.883Z,22.63
2023-07-03T00:29:14.240Z,22.59
2023-07-03T00:32:01.343Z,22.59
2023-07-03T00:34:47.745Z,22.58
2023-07-03T00:37:34.456Z,22.58
2023-07-03T00:40:20.630Z,22.58
2023-07-03T00:43:06.820Z,22.57
2023-07-03T00:45:52.919Z,22.56
2023-07-03T00:48:41.648Z,22.57
2023-07-03T00:51:27.962Z,22.53
2023-07-03T00:54:14.062Z,22.53
2023-07-03T00:57:00.418Z,22.50
2023-07-03T00:59:46.608Z,22.46
2023-07-03T01:02:36.727Z,22.42
2023-07-03T01:05:30.339Z,22.39
2023-07-03T01:08:17.531Z,22.28
2023-07-03T01:11:03.840Z,22.24
2023-07-03T01:13:52.605Z,22.35
2023-07-03T01:16:39.784Z,22.34
2023-07-03T01:19:32.575Z,22.29
2023-07-03T01:22:29.919Z,22.35
2023-07-03T01:25:20.002Z,22.36
2023-07-03T01:28:08.734Z,22.29
2023-07-03T01:30:56.467Z,22.30
2023-07-03T01:33:45.672Z,22.32
2023-07-03T01:36:32.638Z,22.32
2023-07-03T01:39:18.819Z,22.21
2023-07-03T01:42:05.665Z,22.31
2023-07-03T01:44:51.600Z,22.25
2023-07-03T01:47:38.414Z,22.23
2023-07-03T01:50:28.581Z,22.15
2023-07-03T01:53:39.780Z,22.12
2023-07-03T01:56:38.620Z,22.10
2023-07-03T01:59:30.416Z,22.04
2023-07-03T02:02:23.251Z,22.09
2023-07-03T02:05:17.368Z,22.04
2023-07-03T02:08:04.241Z,22.00
2023-07-03T02:10:51.259Z,22.01
2023-07-03T02:13:37.251Z,22.07
2023-07-03T02:16:24.349Z,22.02
2023-07-03T02:19:12.051Z,22.05
2023-07-03T02:21:58.113Z,21.90
2023-07-03T02:24:44.133Z,21.99
2023-07-03T02:27:30.320Z,21.95
2023-07-03T02:30:16.550Z,21.85
2023-07-03T02:33:03.166Z,21.90
2023-07-03T02:35:50.502Z,22.01
2023-07-03T02:38:36.995Z,21.93
2023-07-03T02:41:24.287Z,21.99
2023-07-03T02:44:10.290Z,21.96
2023-07-03T02:46:58.335Z,21.92
2023-07-03T02:49:44.782Z,21.94
2023-07-03T02:52:32.557Z,21.92
2023-07-03T02:55:18.969Z,21.93
2023-07-03T02:58:04.869Z,21.89
2023-07-03T03:00:55.588Z,21.89
2023-07-03T03:03:41.920Z,21.90
2023-07-03T03:06:27.905Z,21.89
2023-07-03T03:09:15.186Z,21.90
2023-07-03T03:12:01.020Z,21.88
2023-07-03T03:14:47.325Z,21.89
2023-07-03T03:17:33.660Z,21.85
2023-07-03T03:20:20.165Z,21.88
2023-07-03T03:23:06.800Z,21.88
2023-07-03T03:25:55.263Z,21.84
2023-07-03T03:28:41.591Z,21.88
2023-07-03T03:31:29.670Z,21.77
2023-07-03T03:34:20.450Z,21.80
2023-07-03T03:37:08.723Z,21.79
2023-07-03T03:39:55.712Z,21.77
2023-07-03T03:42:42.636Z,21.77
2023-07-03T03:45:28.741Z,21.73
2023-07-03T03:48:15.246Z,21.73
2023-07-03T03:51:02.291Z,21.73
2023-07-03T03:53:51.182Z,21.79
2023-07-03T03:56:37.165Z,21.80
2023-07-03T03:59:25.310Z,21.78
2023-07-03T04:02:12.499Z,21.85
2023-07-03T04:04:58.802Z,21.88
2023-07-03T04:07:45.200Z,21.91
2023-07-03T04:10:31.513Z,21.89
2023-07-03T04:13:17.509Z,21.92
2023-07-03T04:16:05.375Z,21.93
2023-07-03T04:18:51.443Z,21.93
2023-07-03T04:21:37.378Z,21.94
2023-07-03T04:24:23.518Z,21.95
2023-07-03T04:27:09.559Z,21.96
2023-07-03T04:29:55.324Z,21.94
2023-07-03T04:32:41.135Z,21.95
2023-07-03T04:35:26.942Z,21.93
2023-07-03T04:38:12.816Z,21.95
2023-07-03T04:40:58.722Z,21.96
2023-07-03T04:43:47.666Z,21.97
2023-07-03T04:46:34.459Z,21.97
2023-07-03T04:49:20.493Z,22.01
2023-07-03T04:52:07.888Z,22.08
2023-07-03T04:54:53.852Z,22.13
2023-07-03T04:57:40.502Z,22.17
2023-07-03T05:00:28.683Z,22.21
2023-07-03T05:03:15.189Z,22.24
2023-07-03T05:06:00.971Z,22.27
2023-07-03T05:08:48.102Z,22.31
2023-07-03T05:11:34.442Z,22.27
2023-07-03T05:14:20.235Z,22.37
2023-07-03T05:17:06.466Z,22.41
2023-07-03T05:19:53.177Z,22.43
2023-07-03T05:22:39.982Z,22.46
2023-07-03T05:25:25.919Z,22.48
2023-07-03T05:28:12.326Z,22.53
2023-07-03T05:31:00.318Z,22.57
2023-07-03T05:33:46.143Z,22.57
2023-07-03T05:36:32.349Z,22.62
2023-07-03T05:39:18.186Z,22.66
2023-07-03T05:42:04.411Z,22.65
2023-07-03T05:44:51.217Z,22.64
2023-07-03T05:47:37.613Z,22.68
2023-07-03T05:50:23.728Z,22.70
2023-07-03T05:53:10.383Z,22.71
2023-07-03T05:55:57.652Z,22.75
2023-07-03T05:58:43.884Z,22.80
2023-07-03T06:01:44.819Z,22.82
2023-07-03T06:04:37.903Z,22.85
2023-07-03T06:07:30.230Z,22.78
2023-07-03T06:10:16.783Z,22.96
2023-07-03T06:13:03.230Z,23.00
2023-07-03T06:15:50.312Z,23.03
2023-07-03T06:18:36.683Z,23.05
2023-07-03T06:21:22.689Z,23.07
2023-07-03T06:24:10.634Z,23.12
2023-07-03T06:26:58.380Z,23.15
2023-07-03T06:29:44.719Z,23.16
2023-07-03T06:32:32.933Z,23.17
2023-07-03T06:35:19.046Z,23.18
2023-07-03T06:38:08.391Z,23.20
2023-07-03T06:40:58.938Z,23.21
2023-07-03T06:43:44.835Z,23.27
2023-07-03T06:46:30.746Z,23.29
2023-07-03T06:49:16.971Z,23.33
2023-07-03T06:52:02.721Z,23.31
2023-07-03T06:54:49.090Z,23.37
2023-07-03T06:57:36.048Z,23.40
2023-07-03T07:00:21.991Z,23.42
2023-07-03T07:03:09.471Z,23.43
2023-07-03T07:05:57.039Z,23.46
2023-07-03T07:08:43.956Z,23.50
2023-07-03T07:11:37.977Z,23.51
2023-07-03T07:14:28.757Z,23.49
2023-07-03T07:17:14.663Z,23.55
2023-07-03T07:20:01.240Z,23.58
2023-07-03T07:22:49.314Z,23.62
2023-07-03T07:25:35.972Z,23.63
2023-07-03T07:28:23.197Z,23.66
2023-07-03T07:31:09.418Z,23.67
2023-07-03T07:33:56.201Z,23.71
2023-07-03T07:36:42.126Z,23.75
2023-07-03T07:39:28.387Z,23.76
2023-07-03T07:42:14.216Z,23.79
2023-07-03T07:45:00.867Z,23.81
2023-07-03T07:47:46.711Z,23.85
2023-07-03T07:50:37.247Z,23.87
2023-07-03T07:53:23.148Z,23.93
2023-07-03T07:56:11.023Z,23.95
2023-07-03T07:58:57.731Z,24.01
2023-07-03T08:01:45.040Z,24.04
2023-07-03T08:04:31.036Z,24.05
2023-07-03T08:07:16.987Z,24.08
2023-07-03T08:10:03.127Z,24.13
2023-07-03T08:12:53.423Z,24.16
2023-07-03T08:15:39.651Z,24.18
2023-07-03T08:18:26.286Z,24.21
2023-07-03T08:21:12.155Z,24.24
2023-07-03T08:23:58.112Z,24.26
2023-07-03T08:26:50.151Z,24.28
2023-07-03T08:29:36.096Z,24.30
2023-07-03T08:32:22.391Z,24.34
2023-07-03T08:37:57.323Z,24.38
2023-07-03T08:40:43.501Z,24.41
2023-07-03T08:43:41.983Z,24.42
2023-07-03T08:46:30.335Z,24.45
2023-07-03T08:49:20.370Z,24.48
2023-07-03T08:52:08.531Z,24.46
2023-07-03T08:54:56.522Z,24.53
2023-07-03T08:57:42.605Z,24.57
2023-07-03T09:00:30.699Z,24.59
2023-07-03T09:03:55.661Z,24.63
2023-07-03T09:06:44.571Z,24.66
2023-07-03T09:09:33.135Z,24.70
2023-07-03T09:12:24.641Z,24.70
2023-07-03T09:15:24.193Z,24.75
2023-07-03T09:18:20.271Z,24.78
2023-07-03T09:21:06.256Z,24.81
2023-07-03T09:23:58.964Z,24.84
2023-07-03T09:26:48.009Z,24.87
2023-07-03T09:29:36.298Z,24.91
2023-07-03T09:32:40.700Z,24.94
2023-07-03T09:35:35.719Z,24.97
2023-07-03T09:38:25.154Z,25.00
2023-07-03T09:41:11.852Z,25.05
2023-07-03T09:43:58.364Z,25.07
2023-07-03T09:46:45.499Z,25.16
2023-07-03T09:49:32.239Z,25.19
2023-07-03T09:52:18.572Z,25.26
2023-07-03T09:55:05.240Z,25.29
2023-07-03T09:57:51.348Z,25.36
2023-07-03T10:00:48.882Z,25.42
2023-07-03T10:03:36.916Z,25.42
2023-07-03T10:12:25.405Z,25.61
2023-07-03T10:15:19.441Z,25.69
2023-07-03T10:18:10.917Z,25.76
2023-07-03T10:20:57.551Z,25.78
2023-07-03T10:23:45.616Z,25.83
2023-07-03T10:26:39.551Z,25.83
2023-07-03T10:29:29.750Z,25.89
2023-07-03T10:32:17.724Z,25.94
2023-07-03T10:35:34.773Z,26.00
2023-07-03T10:38:32.954Z,26.03
2023-07-03T10:41:45.619Z,26.02
2023-07-03T10:44:48.460Z,26.05
2023-07-03T10:47:55.682Z,26.13
2023-07-03T10:50:58.352Z,26.14
2023-07-03T10:53:49.073Z,26.19
2023-07-03T10:56:45.670Z,26.19
2023-07-03T10:59:34.824Z,26.22
2023-07-03T11:02:43.374Z,26.27
2023-07-03T11:05:35.941Z,26.29
2023-07-03T11:08:59.222Z,26.33
2023-07-03T11:12:05.192Z,26.37
2023-07-03T11:15:06.461Z,26.41
2023-07-03T11:24:19.307Z,26.58
2023-07-03T11:30:17.728Z,26.66
2023-07-03T11:33:06.624Z,26.66
2023-07-03T11:35:57.993Z,26.68
2023-07-03T11:45:01.585Z,26.75
2023-07-03T11:47:47.639Z,26.75
2023-07-03T11:50:35.389Z,26.78
2023-07-03T11:53:53.900Z,26.80
2023-07-03T11:56:45.103Z,26.80
2023-07-03T11:59:34.069Z,26.83
2023-07-03T12:02:19.999Z,26.87
2023-07-03T12:05:07.147Z,26.89
2023-07-03T12:07:57.578Z,26.89
2023-07-03T12:10:51.032Z,26.95
2023-07-03T12:13:43.175Z,27.05
2023-07-03T12:16:32.610Z,27.09
2023-07-03T12:19:18.800Z,27.12
2023-07-03T12:22:05.368Z,27.18
2023-07-03T12:25:01.725Z,27.29
2023-07-03T12:27:49.040Z,27.37
2023-07-03T12:30:36.176Z,27.46
2023-07-03T12:33:22.215Z,27.57
2023-07-03T12:36:08.821Z,27.62
2023-07-03T12:38:55.556Z,27.66
2023-07-03T12:41:41.806Z,27.71
2023-07-03T12:44:28.100Z,27.75
2023-07-03T12:47:17.051Z,27.79
2023-07-03T12:50:03.552Z,27.81
2023-07-03T12:52:57.716Z,27.81
2023-07-03T12:55:47.906Z,27.78
2023-07-03T12:58:34.683Z,27.84
2023-07-03T13:01:22.084Z,27.84
2023-07-03T13:04:08.358Z,27.91
2023-07-03T13:06:54.813Z,27.93
2023-07-03T13:09:44.832Z,28.02
2023-07-03T13:12:31.030Z,28.09
2023-07-03T13:15:35.729Z,28.22
2023-07-03T13:18:24.028Z,28.28
2023-07-03T13:21:10.682Z,28.40
2023-07-03T13:24:07.097Z,28.54
2023-07-03T13:26:53.365Z,28.62
2023-07-03T13:29:40.364Z,28.73
2023-07-03T13:32:27.015Z,28.84
2023-07-03T13:35:13.625Z,28.93
2023-07-03T13:38:20.035Z,28.96
2023-07-03T13:41:06.530Z,28.93
2023-07-03T13:43:55.934Z,29.05
2023-07-03T13:46:44.479Z,29.15
2023-07-03T13:49:30.362Z,29.19
2023-07-03T13:52:16.198Z,29.15
2023-07-03T13:55:02.320Z,29.10
2023-07-03T13:57:48.326Z,29.02
2023-07-03T14:00:34.391Z,29.05
2023-07-03T14:03:20.569Z,29.04
2023-07-03T14:06:09.080Z,29.00
2023-07-03T14:08:55.264Z,29.00
2023-07-03T14:11:43.123Z,29.06
2023-07-03T14:14:29.404Z,29.03
2023-07-03T14:17:15.540Z,28.95
2023-07-03T14:20:02.163Z,28.90
2023-07-03T14:22:49.683Z,28.81
2023-07-03T14:25:36.063Z,28.72
2023-07-03T14:28:21.918Z,28.62
2023-07-03T14:31:10.298Z,28.55
2023-07-03T14:33:56.419Z,28.47
2023-07-03T14:36:42.227Z,28.39
2023-07-03T14:39:28.151Z,28.33
2023-07-03T14:42:15.390Z,28.28
2023-07-03T14:45:01.411Z,28.23
2023-07-03T14:47:47.354Z,28.18
2023-07-03T14:50:33.225Z,28.15
2023-07-03T14:53:21.339Z,28.37
2023-07-03T14:56:07.788Z,28.83
2023-07-03T14:58:53.842Z,29.54
2023-07-03T15:01:41.657Z,30.22
2023-07-03T15:04:29.235Z,30.77
2023-07-03T15:07:15.372Z,31.23
2023-07-03T15:10:01.629Z,31.40
2023-07-03T15:12:48.066Z,31.25
2023-07-03T15:15:35.343Z,30.99
2023-07-03T15:18:23.042Z,30.64
2023-07-03T15:21:09.075Z,30.36
2023-07-03T15:23:55.058Z,30.07
2023-07-03T15:26:41.252Z,29.79
2023-07-03T15:29:27.995Z,29.53
2023-07-03T15:32:15.376Z,29.31
2023-07-03T15:35:01.703Z,29.13
2023-07-03T15:37:47.599Z,28.93
2023-07-03T15:40:33.527Z,28.84
2023-07-03T15:43:19.776Z,28.75
2023-07-03T15:46:10.860Z,28.64
2023-07-03T15:48:59.817Z,28.57
2023-07-03T15:51:45.808Z,28.51
2023-07-03T15:54:32.757Z,28.43
2023-07-03T15:57:19.247Z,28.36
2023-07-03T16:00:06.427Z,28.25
2023-07-03T16:02:52.215Z,28.19
2023-07-03T16:05:37.997Z,28.14
2023-07-03T16:08:24.067Z,28.09
2023-07-03T16:11:12.133Z,28.05
2023-07-03T16:13:59.631Z,28.01
2023-07-03T16:16:46.739Z,27.95
2023-07-03T16:19:32.882Z,27.93
2023-07-03T16:22:22.888Z,27.87
2023-07-03T16:25:09.179Z,27.87
2023-07-03T16:27:55.336Z,27.77
2023-07-03T16:30:41.099Z,27.79
2023-07-03T16:33:27.106Z,27.76
2023-07-03T16:36:15.798Z,27.74
2023-07-03T16:39:05.717Z,27.71
2023-07-03T16:41:51.742Z,27.69
2023-07-03T16:44:37.632Z,27.66
2023-07-03T16:47:23.896Z,27.65
2023-07-03T16:50:10.292Z,27.62
2023-07-03T16:52:56.187Z,27.61
2023-07-03T16:55:42.998Z,27.54
2023-07-03T16:58:34.782Z,27.59
2023-07-03T17:01:25.390Z,27.55
2023-07-03T17:04:12.344Z,27.49
2023-07-03T17:06:58.290Z,27.48
2023-07-03T17:09:45.497Z,27.47
2023-07-03T17:12:31.732Z,27.42
2023-07-03T17:15:19.398Z,27.42
2023-07-03T17:18:05.804Z,27.39
2023-07-03T17:20:53.684Z,27.39
2023-07-03T17:23:39.740Z,27.35
2023-07-03T17:26:31.914Z,27.34
2023-07-03T17:29:17.778Z,27.28
2023-07-03T17:32:03.884Z,27.23
2023-07-03T17:34:49.945Z,27.31
2023-07-03T17:37:36.221Z,27.28
2023-07-03T17:40:22.341Z,27.25
2023-07-03T17:43:08.870Z,27.26
2023-07-03T17:45:55.277Z,27.23
2023-07-03T17:48:42.564Z,27.21
2023-07-03T17:51:35.183Z,27.20
2023-07-03T17:54:21.722Z,27.15
2023-07-03T17:57:08.005Z,27.11
2023-07-03T17:59:53.956Z,27.09
2023-07-03T18:02:42.170Z,27.05
2023-07-03T18:05:28.227Z,27.01
2023-07-03T18:08:14.375Z,26.99
2023-07-03T18:11:00.238Z,26.94
2023-07-03T18:13:47.914Z,26.94
2023-07-03T18:16:34.217Z,26.92
2023-07-03T18:19:22.276Z,26.89
2023-07-03T18:22:08.017Z,26.86
2023-07-03T18:24:54.186Z,26.81
2023-07-03T18:27:40.388Z,26.79
2023-07-03T18:30:26.365Z,26.72
2023-07-03T18:33:12.624Z,26.73
2023-07-03T18:35:58.627Z,26.71
2023-07-03T18:38:46.894Z,26.67
2023-07-03T18:41:34.576Z,26.65
2023-07-03T18:44:20.799Z,26.58
2023-07-03T18:47:08.272Z,26.57
2023-07-03T18:49:54.076Z,26.48
2023-07-03T18:52:40.373Z,26.50
2023-07-03T18:55:27.238Z,26.44
2023-07-03T18:58:13.224Z,26.40
2023-07-03T19:00:59.581Z,26.32
2023-07-03T19:03:45.706Z,26.28
2023-07-03T19:06:32.393Z,26.20
2023-07-03T19:09:18.888Z,26.14
2023-07-03T19:12:07.311Z,26.07
2023-07-03T19:14:53.757Z,26.03
2023-07-03T19:17:40.873Z,26.00
2023-07-03T19:20:28.964Z,25.95
2023-07-03T19:23:14.979Z,25.93
2023-07-03T19:26:00.678Z,25.85
2023-07-03T19:28:52.785Z,25.82
2023-07-03T19:31:38.921Z,25.81
2023-07-03T19:34:25.067Z,25.76
2023-07-03T19:37:11.009Z,25.74
2023-07-03T19:39:58.102Z,25.72
2023-07-03T19:42:44.226Z,25.69
2023-07-03T19:45:33.557Z,25.67
2023-07-03T19:48:19.637Z,25.65
2023-07-03T19:51:05.904Z,25.59
2023-07-03T19:53:51.954Z,25.53
2023-07-03T19:56:37.689Z,25.51
2023-07-03T19:59:23.642Z,25.49
2023-07-03T20:02:09.790Z,25.46
2023-07-03T20:04:56.710Z,25.38
2023-07-03T20:07:42.588Z,25.34
2023-07-03T20:10:30.300Z,25.31
2023-07-03T20:13:16.695Z,25.27
2023-07-03T20:16:04.178Z,25.18
2023-07-03T20:18:51.093Z,25.20
2023-07-03T20:21:37.194Z,25.16
2023-07-03T20:24:23.051Z,25.10
2023-07-03T20:27:09.552Z,25.08
2023-07-03T20:30:07.272Z,25.02
2023-07-03T20:32:53.697Z,24.98
2023-07-03T20:35:39.739Z,24.92
2023-07-03T20:38:29.140Z,24.92
2023-07-03T20:41:16.499Z,24.86
2023-07-03T20:44:05.910Z,24.83
2023-07-03T20:46:54.263Z,24.78
2023-07-03T20:49:40.014Z,24.70
2023-07-03T20:52:26.454Z,24.66
2023-07-03T20:55:36.305Z,24.63
2023-07-03T20:58:22.335Z,24.58
2023-07-03T21:01:14.998Z,24.52
2023-07-03T21:04:04.305Z,24.48
2023-07-03T21:06:51.032Z,24.48
2023-07-03T21:09:38.391Z,24.45
2023-07-03T21:12:24.202Z,24.45
2023-07-03T21:15:11.587Z,24.40
2023-07-03T21:18:01.200Z,24.41
2023-07-03T21:20:47.167Z,24.38
2023-07-03T21:23:32.945Z,24.31
2023-07-03T21:26:21.329Z,24.25
2023-07-03T21:29:07.629Z,24.22
2023-07-03T21:31:53.722Z,24.12
2023-07-03T21:34:40.792Z,24.13
2023-07-03T21:37:26.843Z,24.06
2023-07-03T21:40:13.928Z,24.09
2023-07-03T21:42:59.982Z,24.09
2023-07-03T21:45:46.144Z,24.06
2023-07-03T21:48:35.492Z,24.07
2023-07-03T21:51:21.379Z,24.05
2023-07-03T21:54:08.549Z,24.03
2023-07-03T21:56:54.302Z,24.06
2023-07-03T21:59:41.289Z,24.05
2023-07-03T22:02:27.117Z,24.04
2023-07-03T22:05:17.754Z,24.00
2023-07-03T22:08:06.157Z,23.97
2023-07-03T22:10:52.490Z,23.94
2023-07-03T22:13:38.268Z,23.93
2023-07-03T22:16:24.306Z,23.88
2023-07-03T22:19:10.844Z,23.86
2023-07-03T22:22:00.077Z,23.80
2023-07-03T22:24:45.748Z,23.75
2023-07-03T22:27:31.674Z,23.73
2023-07-03T22:30:17.787Z,23.70
2023-07-03T22:33:03.882Z,23.69
2023-07-03T22:35:51.489Z,23.67
2023-07-03T22:38:37.841Z,23.65
2023-07-03T22:41:23.869Z,23.65
2023-07-03T22:44:09.760Z,23.63
2023-07-03T22:46:56.654Z,23.62
2023-07-03T22:49:42.852Z,23.59
2023-07-03T22:52:30.935Z,23.57
2023-07-03T22:55:19.402Z,23.55
2023-07-03T22:58:05.288Z,23.53
2023-07-03T23:00:51.127Z,23.50
2023-07-03T23:03:40.017Z,23.47
2023-07-03T23:06:25.902Z,23.46
2023-07-03T23:09:12.697Z,23.45
2023-07-03T23:11:58.722Z,23.42
2023-07-03T23:14:52.043Z,23.37
2023-07-03T23:17:37.908Z,23.37
2023-07-03T23:20:24.000Z,23.36
2023-07-03T23:23:09.841Z,23.31
2023-07-03T23:26:12.213Z,23.27
2023-07-03T23:28:58.609Z,23.21
2023-07-03T23:31:45.697Z,23.19
2023-07-03T23:34:31.748Z,23.16
2023-07-03T23:37:18.225Z,23.12
2023-07-03T23:40:09.095Z,23.11
2023-07-03T23:42:55.888Z,23.11
2023-07-03T23:45:44.466Z,23.06
2023-07-03T23:48:31.766Z,23.04
2023-07-03T23:51:18.024Z,23.01
2023-07-03T23:54:06.936Z,23.00
2023-07-03T23:56:53.375Z,22.98
2023-07-03T23:59:39.428Z,22.93
